Time;durP1;ratioP1;P1;durP2;ratioP2;P2;SDS_P1;SDS_P2;PMS_P1;PMS_P2;Temp;Humidity;BMP_temperature;BMP_pressure;BME280_temperature;BME280_humidity;BME280_pressure;Samples;Min_cycle;Max_cycle;Signal;HPM_P1;HPM_P2
2021/10/12 00:01:10;;;;;;;11.80;6.23;;;14.50;99.90;;;;;;4911530;29;21064;-80
2021/10/12 00:03:38;;;;;;;8.83;6.03;;;14.40;99.90;;;;;;4911302;29;21202;-81
2021/10/12 00:06:07;;;;;;;10.23;6.70;;;14.40;99.90;;;;;;4912065;29;20582;-79
2021/10/12 00:08:35;;;;;;;9.93;6.77;;;14.40;99.90;;;;;;4907957;29;20543;-81
2021/10/12 00:11:03;;;;;;;8.63;6.80;;;14.30;99.90;;;;;;4905704;29;20529;-80
2021/10/12 00:13:34;;;;;;;10.87;6.50;;;14.30;99.90;;;;;;4913884;29;20461;-81
2021/10/12 00:16:03;;;;;;;7.13;6.43;;;14.30;99.90;;;;;;4911200;29;20548;-80
2021/10/12 00:18:31;;;;;;;9.13;6.37;;;14.30;99.90;;;;;;4912337;29;20458;-79
2021/10/12 00:20:59;;;;;;;12.20;6.00;;;14.20;99.90;;;;;;4911411;29;20970;-78
2021/10/12 00:23:28;;;;;;;10.30;6.17;;;14.20;99.90;;;;;;4909022;29;20458;-80
2021/10/12 00:25:56;;;;;;;9.93;6.00;;;14.20;99.90;;;;;;4910094;29;20485;-80
2021/10/12 00:28:25;;;;;;;7.97;6.03;;;14.10;99.90;;;;;;4913215;29;20453;-80
2021/10/12 00:30:54;;;;;;;10.63;6.60;;;14.10;99.90;;;;;;4927061;29;20477;-78
2021/10/12 00:33:23;;;;;;;10.47;6.67;;;14.10;99.90;;;;;;4915507;29;20445;-79
2021/10/12 00:35:51;;;;;;;8.03;6.63;;;14.10;99.90;;;;;;4913776;29;20503;-79
2021/10/12 00:38:19;;;;;;;8.50;6.10;;;14.10;99.90;;;;;;4910780;29;20458;-79
2021/10/12 00:40:47;;;;;;;10.33;6.40;;;14.10;99.90;;;;;;4906074;29;20458;-78
2021/10/12 00:43:16;;;;;;;9.10;6.27;;;14.10;99.90;;;;;;4911436;29;20465;-78
2021/10/12 00:45:45;;;;;;;8.53;6.10;;;14.10;99.90;;;;;;4909732;29;20529;-79
2021/10/12 00:48:14;;;;;;;9.47;6.07;;;14.00;99.90;;;;;;4911011;29;20529;-82
2021/10/12 00:50:43;;;;;;;11.93;6.23;;;14.00;99.90;;;;;;4911947;29;20987;-81
2021/10/12 00:53:11;;;;;;;9.87;6.40;;;14.00;99.90;;;;;;4912594;29;20462;-81
2021/10/12 00:55:40;;;;;;;8.23;5.07;;;14.00;99.90;;;;;;4906022;29;21285;-81
2021/10/12 00:58:10;;;;;;;17.13;9.13;;;14.00;99.90;;;;;;4912243;29;20833;-82
2021/10/12 01:00:39;;;;;;;15.60;10.00;;;13.90;99.90;;;;;;4909800;29;20524;-81
2021/10/12 01:03:08;;;;;;;22.90;12.23;;;13.90;99.90;;;;;;4916949;29;20453;-81
2021/10/12 01:05:39;;;;;;;18.00;11.37;;;13.90;99.90;;;;;;4914044;29;20999;-80
2021/10/12 01:08:07;;;;;;;16.30;9.03;;;13.90;99.90;;;;;;4912450;29;20536;-80
2021/10/12 01:10:35;;;;;;;14.17;7.80;;;13.90;99.90;;;;;;4912476;29;20460;-82
2021/10/12 01:13:07;;;;;;;13.47;8.53;;;13.80;99.90;;;;;;4915409;29;21119;-81
2021/10/12 01:15:35;;;;;;;8.70;6.37;;;13.80;99.90;;;;;;4913288;29;20494;-82
2021/10/12 01:18:10;;;;;;;10.10;7.27;;;13.80;99.90;;;;;;4912778;29;20469;-82
2021/10/12 01:20:41;;;;;;;10.20;5.90;;;13.80;99.90;;;;;;4915598;29;20460;-81
2021/10/12 01:23:11;;;;;;;9.57;6.90;;;13.80;99.90;;;;;;4921252;29;20462;-80
2021/10/12 01:25:39;;;;;;;12.33;6.23;;;13.80;99.90;;;;;;4917046;29;20822;-79
2021/10/12 01:28:08;;;;;;;8.80;6.40;;;13.80;99.90;;;;;;4910924;29;21246;-81
2021/10/12 01:30:37;;;;;;;9.80;5.93;;;13.80;99.90;;;;;;4914638;29;20480;-82
2021/10/12 01:33:06;;;;;;;7.77;5.70;;;13.80;99.90;;;;;;4908211;29;20532;-82
2021/10/12 01:35:35;;;;;;;12.50;6.83;;;13.70;99.90;;;;;;4916303;29;20515;-81
2021/10/12 01:38:03;;;;;;;11.90;6.23;;;13.70;99.90;;;;;;4928135;29;20511;-82
2021/10/12 01:40:33;;;;;;;9.17;7.17;;;13.70;99.90;;;;;;4918511;29;20456;-80
2021/10/12 01:43:01;;;;;;;7.90;5.90;;;13.70;99.90;;;;;;4913337;29;20466;-80
2021/10/12 01:45:29;;;;;;;10.33;6.40;;;13.70;99.90;;;;;;4919943;29;20480;-80
2021/10/12 01:47:58;;;;;;;9.83;5.87;;;13.60;99.90;;;;;;4917351;29;20469;-80
2021/10/12 01:50:26;;;;;;;9.30;5.50;;;13.60;99.90;;;;;;4935512;29;20464;-78
2021/10/12 01:52:54;;;;;;;8.10;6.03;;;13.60;99.90;;;;;;4913822;29;20456;-78
2021/10/12 01:55:24;;;;;;;9.10;6.53;;;13.60;99.90;;;;;;4916230;29;20493;-80
2021/10/12 01:57:54;;;;;;;10.77;6.60;;;13.60;99.90;;;;;;4915635;29;20460;-80
2021/10/12 02:00:22;;;;;;;8.77;5.90;;;13.60;99.90;;;;;;4913991;29;20463;-80
2021/10/12 02:02:50;;;;;;;8.13;5.67;;;13.60;99.90;;;;;;4916130;29;20475;-80
2021/10/12 02:05:19;;;;;;;11.60;6.60;;;13.60;99.90;;;;;;4910015;29;20562;-79
2021/10/12 02:07:47;;;;;;;11.13;6.47;;;13.60;99.90;;;;;;4915256;29;20500;-79
2021/10/12 02:10:15;;;;;;;9.23;6.40;;;13.50;99.90;;;;;;4915809;29;20468;-79
2021/10/12 02:12:43;;;;;;;6.57;5.93;;;13.50;99.90;;;;;;4915173;29;20457;-79
2021/10/12 02:15:13;;;;;;;7.90;5.67;;;13.50;99.90;;;;;;4904896;29;20479;-79
2021/10/12 02:17:41;;;;;;;10.80;6.50;;;13.50;99.90;;;;;;4909354;29;20458;-80
2021/10/12 02:20:11;;;;;;;11.17;6.70;;;13.60;99.90;;;;;;4914941;29;20460;-79
2021/10/12 02:22:40;;;;;;;8.30;5.87;;;13.60;99.90;;;;;;4911238;29;20460;-81
2021/10/12 02:25:10;;;;;;;9.30;5.97;;;13.60;99.90;;;;;;4908609;29;20542;-80
2021/10/12 02:27:39;;;;;;;9.60;6.13;;;13.60;99.90;;;;;;4915878;29;20472;-80
2021/10/12 02:30:08;;;;;;;8.50;6.17;;;13.60;99.90;;;;;;4912132;29;20460;-81
2021/10/12 02:32:38;;;;;;;8.20;5.90;;;13.60;99.90;;;;;;4913213;29;20889;-80
2021/10/12 02:35:07;;;;;;;10.93;6.30;;;13.60;99.90;;;;;;4905986;29;20504;-82
2021/10/12 02:37:35;;;;;;;8.83;7.17;;;13.60;99.90;;;;;;4912754;29;20493;-82
2021/10/12 02:40:04;;;;;;;10.67;6.20;;;13.60;99.90;;;;;;4912890;29;20522;-81
2021/10/12 02:42:32;;;;;;;8.60;6.00;;;13.60;99.90;;;;;;4915649;29;20485;-80
2021/10/12 02:45:01;;;;;;;8.60;5.57;;;13.60;99.90;;;;;;4910610;29;20484;-80
2021/10/12 02:47:32;;;;;;;9.70;6.77;;;13.60;99.90;;;;;;4913769;29;20458;-81
2021/10/12 02:50:02;;;;;;;11.67;6.60;;;13.60;99.90;;;;;;4911610;29;20825;-80
2021/10/12 02:52:31;;;;;;;8.00;5.70;;;13.60;99.90;;;;;;4910320;29;20458;-80
2021/10/12 02:54:59;;;;;;;9.07;6.80;;;13.50;99.90;;;;;;4905336;29;20512;-80
2021/10/12 02:57:27;;;;;;;10.13;5.57;;;13.50;99.90;;;;;;4906562;29;20483;-80
2021/10/12 02:59:55;;;;;;;10.13;6.47;;;13.60;99.90;;;;;;4905462;29;20550;-81
2021/10/12 03:02:23;;;;;;;10.67;6.13;;;13.50;99.90;;;;;;4913099;29;20532;-80
2021/10/12 03:04:52;;;;;;;9.83;5.83;;;13.50;99.90;;;;;;4917735;29;20852;-79
2021/10/12 03:07:21;;;;;;;9.17;5.87;;;13.50;99.90;;;;;;4910837;29;20531;-80
2021/10/12 03:09:50;;;;;;;8.63;6.10;;;13.50;99.90;;;;;;4914733;29;20468;-81
2021/10/12 03:12:18;;;;;;;10.30;5.97;;;13.50;99.90;;;;;;4914891;29;20461;-81
2021/10/12 03:14:46;;;;;;;10.83;6.37;;;13.50;99.90;;;;;;4911135;29;20523;-79
2021/10/12 03:17:14;;;;;;;9.30;6.20;;;13.40;99.90;;;;;;4913215;29;20472;-79
2021/10/12 03:19:42;;;;;;;10.10;7.10;;;13.40;99.90;;;;;;4911313;29;20452;-79
2021/10/12 03:22:12;;;;;;;11.43;7.57;;;13.50;99.90;;;;;;4930412;29;20824;-81
2021/10/12 03:24:42;;;;;;;8.97;6.10;;;13.50;99.90;;;;;;4927487;29;21432;-81
2021/10/12 03:27:11;;;;;;;10.37;6.87;;;13.50;99.90;;;;;;4915235;29;20517;-80
2021/10/12 03:29:40;;;;;;;11.63;6.80;;;13.50;99.90;;;;;;4913681;29;20459;-80
2021/10/12 03:32:09;;;;;;;8.67;6.93;;;13.60;99.90;;;;;;4910684;29;21052;-80
2021/10/12 03:34:37;;;;;;;10.50;6.10;;;13.60;99.90;;;;;;4912102;29;20487;-80
2021/10/12 03:37:05;;;;;;;11.97;8.17;;;13.60;99.90;;;;;;4913427;29;20703;-80
2021/10/12 03:39:33;;;;;;;12.00;6.93;;;13.60;99.90;;;;;;4914778;29;20465;-81
2021/10/12 03:42:03;;;;;;;10.13;6.80;;;13.60;99.90;;;;;;4915421;29;20535;-80
2021/10/12 03:44:32;;;;;;;11.20;7.60;;;13.60;99.90;;;;;;4911882;29;20525;-80
2021/10/12 03:47:00;;;;;;;11.77;7.50;;;13.60;99.90;;;;;;4912880;29;20461;-81
2021/10/12 03:49:28;;;;;;;9.53;6.30;;;13.60;99.90;;;;;;4908341;29;20528;-82
2021/10/12 03:51:56;;;;;;;14.50;7.23;;;13.60;99.90;;;;;;4913674;29;20462;-81
2021/10/12 03:54:24;;;;;;;9.97;6.67;;;13.60;99.90;;;;;;4927955;29;20478;-81
2021/10/12 03:56:53;;;;;;;10.17;6.77;;;13.60;99.90;;;;;;4905959;29;20489;-80
2021/10/12 03:59:22;;;;;;;10.57;6.27;;;13.60;99.90;;;;;;4913354;29;20465;-80
2021/10/12 04:01:50;;;;;;;12.67;7.27;;;13.60;99.90;;;;;;4912359;29;21168;-80
2021/10/12 04:04:19;;;;;;;13.30;6.50;;;13.60;99.90;;;;;;4911547;29;20490;-79
2021/10/12 04:06:47;;;;;;;8.10;6.33;;;13.50;99.90;;;;;;4912315;29;20469;-80
2021/10/12 04:09:15;;;;;;;10.73;6.07;;;13.60;99.90;;;;;;4908592;29;20457;-80
2021/10/12 04:11:43;;;;;;;14.27;6.47;;;13.60;99.90;;;;;;4916100;29;20464;-81
2021/10/12 04:14:11;;;;;;;14.47;7.80;;;13.60;99.90;;;;;;4912557;29;20555;-80
2021/10/12 04:16:44;;;;;;;11.90;6.03;;;13.60;99.90;;;;;;4901981;29;20508;-80
2021/10/12 04:19:13;;;;;;;9.37;6.73;;;13.60;99.90;;;;;;4909144;29;20958;-80
2021/10/12 04:21:41;;;;;;;9.57;5.70;;;13.60;99.90;;;;;;4909703;29;20461;-80
2021/10/12 04:24:09;;;;;;;8.90;5.90;;;13.60;99.90;;;;;;4911436;29;20549;-81
2021/10/12 04:26:39;;;;;;;9.00;5.70;;;13.60;99.90;;;;;;4914330;29;20460;-80
2021/10/12 04:29:08;;;;;;;6.03;4.93;;;13.70;99.90;;;;;;4916669;29;20544;-79
2021/10/12 04:31:37;;;;;;;9.57;5.93;;;13.70;99.90;;;;;;4914032;29;20837;-79
2021/10/12 04:34:09;;;;;;;10.37;6.17;;;13.60;99.90;;;;;;4916050;29;20441;-81
2021/10/12 04:36:37;;;;;;;8.90;7.33;;;13.60;99.90;;;;;;4912710;29;20505;-77
2021/10/12 04:39:07;;;;;;;7.60;5.07;;;13.60;99.90;;;;;;4911034;29;20567;-78
2021/10/12 04:41:35;;;;;;;7.20;5.30;;;13.50;99.90;;;;;;4910765;29;20465;-78
2021/10/12 04:44:06;;;;;;;6.47;4.87;;;13.40;99.90;;;;;;4909406;29;20458;-77
2021/10/12 04:46:34;;;;;;;9.80;4.73;;;13.40;99.90;;;;;;4909480;29;20910;-78
2021/10/12 04:49:03;;;;;;;5.40;4.90;;;13.30;99.90;;;;;;4911388;29;21056;-76
2021/10/12 04:51:33;;;;;;;6.67;4.23;;;13.20;99.90;;;;;;4910366;29;20594;-77
2021/10/12 04:54:02;;;;;;;10.03;5.20;;;13.20;99.90;;;;;;4911039;29;20469;-77
2021/10/12 04:56:30;;;;;;;8.57;5.60;;;13.10;99.90;;;;;;4910262;29;20525;-78
2021/10/12 04:58:59;;;;;;;6.70;4.73;;;13.20;99.90;;;;;;4912146;29;20456;-77
2021/10/12 05:01:27;;;;;;;7.93;5.33;;;13.20;99.90;;;;;;4911412;29;20456;-78
2021/10/12 05:03:55;;;;;;;6.47;4.47;;;13.40;99.90;;;;;;4912483;29;20819;-78
2021/10/12 05:06:23;;;;;;;7.73;6.23;;;13.40;99.90;;;;;;4912146;29;20495;-78
2021/10/12 05:08:54;;;;;;;14.60;4.90;;;13.50;99.90;;;;;;4911914;29;20462;-77
2021/10/12 05:11:22;;;;;;;10.30;5.83;;;13.50;99.90;;;;;;4912697;29;20455;-77
2021/10/12 05:13:51;;;;;;;9.13;5.20;;;13.50;99.90;;;;;;4914139;29;20476;-78
2021/10/12 05:16:21;;;;;;;5.90;4.50;;;13.50;99.90;;;;;;4902563;29;20790;-77
2021/10/12 05:18:53;;;;;;;9.43;5.67;;;13.50;99.90;;;;;;4912262;29;21053;-78
2021/10/12 05:21:22;;;;;;;6.73;4.90;;;13.70;99.90;;;;;;4915896;29;20831;-77
2021/10/12 05:23:50;;;;;;;9.35;5.90;;;13.50;99.90;;;;;;4909604;29;20954;-77
2021/10/12 05:26:20;;;;;;;6.50;5.60;;;13.50;99.90;;;;;;4913276;29;20306;-77
2021/10/12 05:28:49;;;;;;;11.40;6.70;;;13.50;99.90;;;;;;4918800;29;20541;-77
2021/10/12 05:31:18;;;;;;;7.10;5.37;;;13.60;99.90;;;;;;4916335;29;20268;-77
2021/10/12 05:33:47;;;;;;;8.13;5.53;;;13.50;99.90;;;;;;4918871;29;20468;-78
2021/10/12 05:36:15;;;;;;;12.60;5.50;;;13.60;99.90;;;;;;4918198;29;20968;-78
2021/10/12 05:38:45;;;;;;;10.67;4.80;;;13.60;99.90;;;;;;4919059;29;20487;-78
2021/10/12 05:41:14;;;;;;;6.40;4.88;;;13.50;99.90;;;;;;4916485;29;20458;-77
2021/10/12 05:43:43;;;;;;;7.40;4.50;;;13.50;99.90;;;;;;4909526;29;20209;-77
2021/10/12 05:46:11;;;;;;;10.83;6.50;;;13.50;99.90;;;;;;4924714;29;20858;-77
2021/10/12 05:48:40;;;;;;;7.20;4.70;;;13.50;99.90;;;;;;4917640;29;20467;-78
2021/10/12 05:51:09;;;;;;;7.87;4.93;;;13.50;99.90;;;;;;4916679;29;20460;-79
2021/10/12 05:53:45;;;;;;;8.83;4.40;;;13.50;99.90;;;;;;4917397;29;20464;-79
2021/10/12 05:56:15;;;;;;;8.03;5.53;;;13.50;99.90;;;;;;4917171;29;21016;-77
2021/10/12 05:58:48;;;;;;;6.23;4.70;;;13.50;99.90;;;;;;4913804;29;20861;-77
2021/10/12 06:01:18;;;;;;;11.67;5.17;;;13.40;99.90;;;;;;4917350;29;20480;-77
2021/10/12 06:03:46;;;;;;;5.97;4.20;;;13.40;99.90;;;;;;4917410;29;20853;-78
2021/10/12 06:06:15;;;;;;;7.27;5.17;;;13.40;99.90;;;;;;4919273;29;20518;-77
2021/10/12 06:08:44;;;;;;;8.87;4.40;;;13.40;99.90;;;;;;4915449;29;20455;-78
2021/10/12 06:11:13;;;;;;;6.53;5.37;;;13.40;1.00;;;;;;4907515;29;20544;-78
2021/10/12 06:13:41;;;;;;;8.23;4.70;;;13.50;1.00;;;;;;4911028;29;20516;-78
2021/10/12 06:16:11;;;;;;;9.80;5.57;;;13.50;1.00;;;;;;4914148;29;20491;-76
2021/10/12 06:18:39;;;;;;;9.97;5.57;;;13.50;1.00;;;;;;4917805;29;20495;-77
2021/10/12 06:21:07;;;;;;;6.30;4.80;;;13.50;1.00;;;;;;4915419;29;20482;-78
2021/10/12 06:23:35;;;;;;;9.90;5.60;;;13.40;1.00;;;;;;4920388;29;20466;-78
2021/10/12 06:26:03;;;;;;;10.47;5.20;;;13.40;99.90;;;;;;4904306;29;20493;-79
2021/10/12 06:28:32;;;;;;;6.43;5.00;;;13.40;1.00;;;;;;4912661;29;20460;-78
2021/10/12 06:31:00;;;;;;;9.50;5.23;;;13.40;1.00;;;;;;4914353;29;20468;-78
2021/10/12 06:33:29;;;;;;;7.37;4.90;;;13.40;1.00;;;;;;4908037;29;20463;-78
2021/10/12 06:35:58;;;;;;;7.40;5.70;;;13.40;1.00;;;;;;4914546;29;20872;-78
2021/10/12 06:38:26;;;;;;;6.97;5.13;;;13.40;1.00;;;;;;4913348;29;20829;-78
2021/10/12 06:40:54;;;;;;;10.53;6.00;;;13.40;1.00;;;;;;4916870;29;20468;-78
2021/10/12 06:43:22;;;;;;;7.30;4.37;;;13.40;1.00;;;;;;4910096;29;21041;-78
2021/10/12 06:45:50;;;;;;;10.03;4.77;;;13.40;1.00;;;;;;4914796;29;20481;-78
2021/10/12 06:48:19;;;;;;;11.13;5.50;;;13.30;1.00;;;;;;4914540;29;20456;-78
2021/10/12 06:50:48;;;;;;;6.57;5.00;;;13.40;1.00;;;;;;4907620;29;20466;-78
2021/10/12 06:53:38;;;;;;;8.10;4.93;;;13.40;1.00;;;;;;4913192;29;20461;-78
2021/10/12 06:56:06;;;;;;;8.60;5.10;;;13.40;1.00;;;;;;4907519;29;20492;-78
2021/10/12 06:58:35;;;;;;;8.67;5.13;;;13.40;1.00;;;;;;4913654;29;21047;-79
2021/10/12 07:01:20;;;;;;;5.10;4.20;;;13.40;1.00;;;;;;4921029;29;20480;-78
2021/10/12 07:03:49;;;;;;;7.13;4.80;;;13.50;1.00;;;;;;4903369;29;20463;-78
2021/10/12 07:06:19;;;;;;;7.00;4.93;;;13.50;1.00;;;;;;4921476;29;21037;-78
2021/10/12 07:08:48;;;;;;;12.23;4.90;;;13.50;99.90;;;;;;4915502;29;20456;-78
2021/10/12 07:11:16;;;;;;;8.10;4.80;;;13.50;99.90;;;;;;4910972;29;20604;-77
2021/10/12 07:13:46;;;;;;;7.43;4.03;;;13.50;99.90;;;;;;4912724;29;20466;-78
2021/10/12 07:16:15;;;;;;;6.20;5.00;;;13.50;99.90;;;;;;4910259;29;20462;-78
2021/10/12 07:18:44;;;;;;;8.43;5.57;;;13.60;1.00;;;;;;4905541;29;20472;-80
2021/10/12 07:21:12;;;;;;;9.40;5.00;;;13.50;1.00;;;;;;4912674;29;20966;-78
2021/10/12 07:23:41;;;;;;;6.80;4.60;;;13.60;1.00;;;;;;4913199;29;20523;-78
2021/10/12 07:26:10;;;;;;;8.13;5.07;;;13.60;1.00;;;;;;4914237;29;20486;-78
2021/10/12 07:28:39;;;;;;;7.87;4.30;;;13.60;1.00;;;;;;4907656;29;20481;-78
2021/10/12 07:31:08;;;;;;;5.07;4.50;;;13.50;1.00;;;;;;4914550;29;20477;-77
2021/10/12 07:33:37;;;;;;;8.87;4.90;;;13.50;1.00;;;;;;4914388;29;20521;-77
2021/10/12 07:36:05;;;;;;;8.10;5.00;;;13.50;1.00;;;;;;4912388;29;20545;-78
2021/10/12 07:38:34;;;;;;;7.43;4.60;;;13.50;1.00;;;;;;4910460;29;20858;-78
2021/10/12 07:41:03;;;;;;;9.90;5.00;;;13.50;1.00;;;;;;4912740;29;20460;-78
2021/10/12 07:43:35;;;;;;;6.17;4.43;;;13.50;1.00;;;;;;4911590;29;20460;-78
2021/10/12 07:46:03;;;;;;;6.87;4.27;;;13.50;1.00;;;;;;4906577;29;20479;-78
2021/10/12 07:48:32;;;;;;;6.17;3.97;;;13.50;1.00;;;;;;4914861;29;20452;-77
2021/10/12 07:51:03;;;;;;;9.83;5.20;;;13.60;1.00;;;;;;4913018;29;20456;-79
2021/10/12 07:53:33;;;;;;;7.23;4.60;;;13.60;1.00;;;;;;4911833;29;20461;-78
2021/10/12 07:56:05;;;;;;;6.80;4.37;;;13.50;1.00;;;;;;4902370;29;20768;-78
2021/10/12 07:58:33;;;;;;;7.13;4.00;;;13.50;1.00;;;;;;4913312;29;20509;-80
2021/10/12 08:01:03;;;;;;;7.77;4.17;;;13.50;1.00;;;;;;4910245;29;20977;-78
2021/10/12 08:03:31;;;;;;;4.30;3.87;;;13.50;1.00;;;;;;4906933;29;20468;-79
2021/10/12 08:06:00;;;;;;;8.03;4.03;;;13.50;1.00;;;;;;4913506;29;20476;-82
2021/10/12 08:08:29;;;;;;;8.10;4.07;;;13.60;1.00;;;;;;4913699;29;20455;-78
2021/10/12 08:10:58;;;;;;;6.70;4.37;;;13.50;1.00;;;;;;4913425;29;20498;-78
2021/10/12 08:13:28;;;;;;;8.00;4.00;;;13.50;1.00;;;;;;4912385;29;20476;-78
2021/10/12 08:16:05;;;;;;;5.30;4.80;;;13.50;1.00;;;;;;4902718;29;20490;-78
2021/10/12 08:18:33;;;;;;;4.07;3.67;;;13.50;1.00;;;;;;4913714;29;20972;-78
2021/10/12 08:21:01;;;;;;;4.70;3.60;;;13.60;1.00;;;;;;4911346;29;20462;-78
2021/10/12 08:23:30;;;;;;;4.47;3.10;;;13.50;99.90;;;;;;4903495;29;20817;-78
2021/10/12 08:25:58;;;;;;;5.10;3.63;;;13.50;99.90;;;;;;4911445;29;20992;-78
2021/10/12 08:28:27;;;;;;;4.37;3.00;;;13.50;99.90;;;;;;4903389;29;20514;-79
2021/10/12 08:30:55;;;;;;;5.32;3.80;;;13.50;99.90;;;;;;4904922;29;20468;-78
2021/10/12 08:33:24;;;;;;;5.77;4.37;;;13.50;99.90;;;;;;4913404;29;20205;-78
2021/10/12 08:35:52;;;;;;;3.77;2.93;;;13.60;99.90;;;;;;4909532;29;20499;-78
2021/10/12 08:38:40;;;;;;;3.40;2.80;;;13.70;99.90;;;;;;4919859;29;20456;-79
2021/10/12 08:41:09;;;;;;;6.40;4.20;;;13.70;99.90;;;;;;4915525;29;20519;-79
2021/10/12 08:43:39;;;;;;;3.87;3.00;;;13.70;1.00;;;;;;4912452;29;20472;-78
2021/10/12 08:46:08;;;;;;;5.40;3.80;;;13.80;1.00;;;;;;4910708;29;20489;-78
2021/10/12 08:48:37;;;;;;;5.17;2.53;;;13.90;99.90;;;;;;4912519;29;20456;-79
2021/10/12 08:51:06;;;;;;;6.20;3.70;;;13.90;99.90;;;;;;4907494;29;20465;-77
2021/10/12 08:53:35;;;;;;;5.17;4.00;;;13.90;1.00;;;;;;4906113;29;20466;-78
2021/10/12 08:56:03;;;;;;;9.13;5.07;;;14.00;99.90;;;;;;4911882;29;20543;-78
2021/10/12 08:58:31;;;;;;;6.67;4.27;;;14.10;1.00;;;;;;4911462;29;20849;-80
2021/10/12 09:01:09;;;;;;;5.53;3.27;;;14.10;99.90;;;;;;4909870;29;20485;-79
2021/10/12 09:03:52;;;;;;;3.73;3.30;;;14.20;99.90;;;;;;4911901;29;20546;-78
2021/10/12 09:06:30;;;;;;;4.13;2.83;;;14.20;99.90;;;;;;4911743;29;20472;-77
2021/10/12 09:09:15;;;;;;;3.60;2.50;;;14.20;99.90;;;;;;4910906;29;20449;-77
2021/10/12 09:11:44;;;;;;;3.00;2.70;;;14.10;99.90;;;;;;4910618;29;20997;-78
2021/10/12 09:14:13;;;;;;;6.53;4.20;;;14.20;99.90;;;;;;4909926;29;20492;-77
2021/10/12 09:16:44;;;;;;;4.07;3.00;;;14.20;99.90;;;;;;4911450;29;20492;-79
2021/10/12 09:19:13;;;;;;;5.83;3.37;;;14.20;99.90;;;;;;4908365;29;20508;-78
2021/10/12 09:21:44;;;;;;;5.07;3.40;;;14.20;99.90;;;;;;4910122;29;20545;-78
2021/10/12 09:24:15;;;;;;;3.80;2.77;;;14.30;99.90;;;;;;4902778;29;20218;-78
2021/10/12 09:26:45;;;;;;;5.85;3.90;;;14.30;99.90;;;;;;4905349;29;20494;-79
2021/10/12 09:29:17;;;;;;;3.83;3.00;;;14.40;99.90;;;;;;4912811;29;20209;-78
2021/10/12 09:31:47;;;;;;;5.77;3.50;;;14.40;99.90;;;;;;4910623;29;20465;-78
2021/10/12 09:34:18;;;;;;;4.10;3.27;;;14.50;99.90;;;;;;4911537;29;20469;-77
2021/10/12 09:36:48;;;;;;;5.20;3.63;;;14.50;99.90;;;;;;4907270;29;20494;-78
2021/10/12 09:39:18;;;;;;;6.73;3.40;;;14.60;99.90;;;;;;4912480;29;20458;-78
2021/10/12 09:41:56;;;;;;;5.73;3.10;;;14.60;99.90;;;;;;4911126;29;20484;-79
2021/10/12 09:44:24;;;;;;;6.60;3.50;;;14.60;99.90;;;;;;4910075;29;20553;-78
2021/10/12 09:46:54;;;;;;;28.17;5.50;;;14.70;99.90;;;;;;4914799;29;20531;-79
2021/10/12 09:49:23;;;;;;;4.03;3.50;;;14.80;99.90;;;;;;4910194;29;20556;-78
2021/10/12 09:52:02;;;;;;;5.10;3.10;;;15.00;99.90;;;;;;4910157;29;20534;-77
2021/10/12 09:54:32;;;;;;;5.97;3.63;;;15.10;99.90;;;;;;4907235;29;20458;-78
2021/10/12 09:57:02;;;;;;;5.10;3.27;;;15.20;99.90;;;;;;4906345;29;20526;-79
2021/10/12 09:59:31;;;;;;;9.43;3.57;;;15.40;99.90;;;;;;4911384;29;20936;-78
2021/10/12 10:02:01;;;;;;;5.03;2.60;;;15.50;99.90;;;;;;4905344;29;20470;-80
2021/10/12 10:04:38;;;;;;;7.13;3.17;;;15.70;99.90;;;;;;4912120;29;20476;-79
2021/10/12 10:07:11;;;;;;;4.23;2.80;;;15.70;99.90;;;;;;4915335;29;20471;-79
2021/10/12 10:09:42;;;;;;;9.20;4.53;;;15.80;99.90;;;;;;4916003;29;20454;-79
2021/10/12 10:12:12;;;;;;;3.87;2.17;;;15.70;99.90;;;;;;4914232;29;20460;-80
2021/10/12 10:14:41;;;;;;;3.43;3.13;;;15.70;99.90;;;;;;4915488;29;20480;-80
2021/10/12 10:17:11;;;;;;;5.80;2.53;;;15.60;99.90;;;;;;4915175;29;20547;-78
2021/10/12 10:19:44;;;;;;;9.17;3.07;;;15.60;99.90;;;;;;4914979;29;20470;-78
2021/10/12 10:22:37;;;;;;;4.57;2.33;;;15.40;99.90;;;;;;4912319;29;20468;-78
2021/10/12 10:25:28;;;;;;;7.67;3.13;;;15.40;99.90;;;;;;4911226;29;20503;-78
2021/10/12 10:27:58;;;;;;;2.47;2.27;;;15.30;99.90;;;;;;4909600;29;20463;-78
2021/10/12 10:30:31;;;;;;;4.07;3.30;;;15.20;99.90;;;;;;4910339;29;21106;-78
2021/10/12 10:33:03;;;;;;;4.57;3.00;;;15.10;99.90;;;;;;4913266;29;20958;-79
2021/10/12 10:35:39;;;;;;;2.40;2.20;;;15.10;99.90;;;;;;4909526;29;20494;-78
2021/10/12 10:38:32;;;;;;;4.37;3.40;;;14.90;99.90;;;;;;4907720;29;20472;-78
2021/10/12 10:41:28;;;;;;;3.10;2.50;;;14.90;99.90;;;;;;4905868;29;20525;-78
2021/10/12 10:44:01;;;;;;;4.20;3.63;;;14.80;99.90;;;;;;4914870;29;20469;-81
2021/10/12 10:46:43;;;;;;;4.50;3.23;;;14.80;99.90;;;;;;4910643;29;20880;-78
2021/10/12 10:49:16;;;;;;;4.30;3.50;;;14.80;99.90;;;;;;4909954;29;20462;-78
2021/10/12 10:51:56;;;;;;;4.60;3.07;;;14.80;99.90;;;;;;4912960;29;20467;-78
2021/10/12 10:55:04;;;;;;;5.07;3.80;;;14.80;99.90;;;;;;4906953;29;20494;-79
2021/10/12 10:57:33;;;;;;;4.53;3.53;;;14.90;99.90;;;;;;4909673;29;20967;-78
2021/10/12 11:00:39;;;;;;;4.67;3.43;;;14.90;99.90;;;;;;4912917;29;20950;-80
2021/10/12 11:03:08;;;;;;;6.83;3.80;;;14.90;99.90;;;;;;4909986;29;20466;-78
2021/10/12 11:05:41;;;;;;;4.83;3.53;;;14.90;99.90;;;;;;4909428;29;20490;-78
2021/10/12 11:08:18;;;;;;;7.43;4.00;;;14.90;99.90;;;;;;4915609;29;20518;-79
2021/10/12 11:10:49;;;;;;;6.13;3.47;;;14.70;99.90;;;;;;4911024;29;21017;-78
2021/10/12 11:13:29;;;;;;;3.50;2.60;;;14.70;99.90;;;;;;4914335;29;20510;-78
2021/10/12 11:15:57;;;;;;;5.47;3.83;;;14.70;99.90;;;;;;4901946;29;20451;-80
2021/10/12 11:18:26;;;;;;;5.90;4.20;;;14.80;99.90;;;;;;4914358;29;20590;-82
2021/10/12 11:20:58;;;;;;;4.47;3.77;;;14.80;99.90;;;;;;4906300;29;20473;-79
2021/10/12 11:23:29;;;;;;;3.83;3.40;;;14.80;99.90;;;;;;4912300;29;20467;-78
2021/10/12 11:26:02;;;;;;;3.90;3.50;;;14.80;99.90;;;;;;4903722;29;20459;-80
2021/10/12 11:28:32;;;;;;;3.17;2.43;;;14.90;99.90;;;;;;4911034;29;20492;-80
2021/10/12 11:31:03;;;;;;;5.37;2.33;;;14.90;99.90;;;;;;4910599;29;20470;-79
2021/10/12 11:33:37;;;;;;;4.90;3.13;;;14.90;99.90;;;;;;4910326;29;20893;-78
2021/10/12 11:36:08;;;;;;;3.47;2.50;;;14.90;99.90;;;;;;4912496;29;20529;-80
2021/10/12 11:38:40;;;;;;;3.03;2.80;;;14.90;99.90;;;;;;4911460;29;20963;-79
2021/10/12 11:41:13;;;;;;;6.57;2.77;;;14.90;99.90;;;;;;4907268;29;21081;-79
2021/10/12 11:43:43;;;;;;;4.53;3.03;;;15.00;99.90;;;;;;4908486;29;20463;-79
2021/10/12 11:46:11;;;;;;;4.70;3.10;;;15.00;99.90;;;;;;4920846;29;20512;-78
2021/10/12 11:48:40;;;;;;;2.83;2.07;;;14.90;99.90;;;;;;4913185;29;20462;-78
2021/10/12 11:51:18;;;;;;;3.73;2.80;;;15.00;99.90;;;;;;4909793;29;20498;-79
2021/10/12 11:53:47;;;;;;;4.43;3.87;;;15.00;99.90;;;;;;4909030;29;20655;-78
2021/10/12 11:56:17;;;;;;;2.27;1.97;;;15.10;99.90;;;;;;4923515;29;21188;-77
2021/10/12 11:58:46;;;;;;;5.87;2.40;;;15.10;99.90;;;;;;4900246;29;20466;-78
2021/10/12 12:01:17;;;;;;;4.23;2.53;;;15.10;99.90;;;;;;4905132;29;20498;-79
2021/10/12 12:03:46;;;;;;;2.43;1.90;;;15.20;99.90;;;;;;4910398;29;20518;-78
2021/10/12 12:06:20;;;;;;;3.30;2.40;;;15.10;99.90;;;;;;4903307;29;21035;-79
2021/10/12 12:08:50;;;;;;;2.77;1.70;;;15.10;99.90;;;;;;4911048;29;20470;-78
2021/10/12 12:11:22;;;;;;;2.30;1.83;;;15.10;99.90;;;;;;4912357;29;20940;-78
2021/10/12 12:13:51;;;;;;;2.30;2.10;;;15.20;99.90;;;;;;4905506;29;20901;-79
2021/10/12 12:16:20;;;;;;;2.50;1.83;;;15.30;99.90;;;;;;4908927;29;20965;-78
2021/10/12 12:18:49;;;;;;;2.10;1.90;;;15.30;99.90;;;;;;4913554;29;20464;-80
2021/10/12 12:21:32;;;;;;;3.17;1.40;;;15.20;99.90;;;;;;4911719;29;20481;-78
2021/10/12 12:24:01;;;;;;;5.90;1.97;;;15.30;99.90;;;;;;4907376;29;20473;-78
2021/10/12 12:26:32;;;;;;;1.83;1.60;;;15.40;99.90;;;;;;4911278;29;20719;-79
2021/10/12 12:29:19;;;;;;;4.40;1.63;;;15.40;99.90;;;;;;4909420;29;20470;-79
2021/10/12 12:31:50;;;;;;;1.93;1.80;;;15.40;99.90;;;;;;4909083;29;20467;-80
2021/10/12 12:34:29;;;;;;;3.10;1.97;;;15.40;99.90;;;;;;4907062;29;20559;-78
2021/10/12 12:37:00;;;;;;;5.30;2.20;;;15.30;99.90;;;;;;4911076;29;20483;-77
2021/10/12 12:39:37;;;;;;;6.70;2.10;;;15.30;99.90;;;;;;4911628;29;20502;-79
2021/10/12 12:42:08;;;;;;;2.90;2.10;;;15.30;99.90;;;;;;4911664;29;20490;-77
2021/10/12 12:44:37;;;;;;;2.87;2.20;;;15.30;99.90;;;;;;4913160;29;20556;-77
2021/10/12 12:47:07;;;;;;;2.53;1.93;;;15.30;99.90;;;;;;4912042;29;20558;-76
2021/10/12 12:49:36;;;;;;;4.30;2.53;;;15.30;99.90;;;;;;4900141;29;20472;-78
2021/10/12 12:52:22;;;;;;;3.10;1.80;;;15.40;99.90;;;;;;4902785;29;20497;-78
2021/10/12 12:54:51;;;;;;;3.13;1.97;;;15.50;99.90;;;;;;4903335;29;20487;-76
2021/10/12 12:57:20;;;;;;;2.43;1.93;;;15.60;99.90;;;;;;4900612;29;20461;-77
2021/10/12 13:00:00;;;;;;;2.50;2.30;;;15.70;99.90;;;;;;4904765;29;20468;-78
2021/10/12 13:02:29;;;;;;;4.03;2.87;;;15.70;99.90;;;;;;4908175;29;20495;-76